sensor_id;sensor_type;location;lat;lon;timestamp;temperature;humidity
20568;DHT22;10442;49.932;11.592;2022-07-29T00:01:42;22.50;45.30
20568;DHT22;10442;49.932;11.592;2022-07-29T00:04:10;22.50;45.50
20568;DHT22;10442;49.932;11.592;2022-07-29T00:06:37;22.50;45.50
20568;DHT22;10442;49.932;11.592;2022-07-29T00:09:05;22.40;45.40
20568;DHT22;10442;49.932;11.592;2022-07-29T00:11:33;22.40;45.60
20568;DHT22;10442;49.932;11.592;2022-07-29T00:14:01;22.40;45.60
20568;DHT22;10442;49.932;11.592;2022-07-29T00:16:28;22.40;45.80
20568;DHT22;10442;49.932;11.592;2022-07-29T00:18:57;22.40;45.90
20568;DHT22;10442;49.932;11.592;2022-07-29T00:21:28;22.40;46.00
20568;DHT22;10442;49.932;11.592;2022-07-29T00:23:56;22.30;45.80
20568;DHT22;10442;49.932;11.592;2022-07-29T00:26:24;22.30;45.90
20568;DHT22;10442;49.932;11.592;2022-07-29T00:28:51;22.30;45.80
20568;DHT22;10442;49.932;11.592;2022-07-29T00:31:39;22.30;45.90
20568;DHT22;10442;49.932;11.592;2022-07-29T00:34:06;22.30;45.90
20568;DHT22;10442;49.932;11.592;2022-07-29T00:36:54;22.30;46.00
20568;DHT22;10442;49.932;11.592;2022-07-29T00:39:21;22.20;46.10
20568;DHT22;10442;49.932;11.592;2022-07-29T00:41:49;22.20;46.40
20568;DHT22;10442;49.932;11.592;2022-07-29T00:44:17;22.20;46.70
20568;DHT22;10442;49.932;11.592;2022-07-29T00:46:45;22.20;46.60
20568;DHT22;10442;49.932;11.592;2022-07-29T00:49:13;22.20;46.50
20568;DHT22;10442;49.932;11.592;2022-07-29T00:51:40;22.20;46.40
20568;DHT22;10442;49.932;11.592;2022-07-29T00:54:08;22.20;46.40
20568;DHT22;10442;49.932;11.592;2022-07-29T00:56:36;22.20;46.40
20568;DHT22;10442;49.932;11.592;2022-07-29T00:59:03;22.10;46.30
20568;DHT22;10442;49.932;11.592;2022-07-29T01:01:31;22.10;46.10
20568;DHT22;10442;49.932;11.592;2022-07-29T01:03:58;22.10;45.90
20568;DHT22;10442;49.932;11.592;2022-07-29T01:06:26;22.10;46.00
20568;DHT22;10442;49.932;11.592;2022-07-29T01:08:54;22.10;46.30
20568;DHT22;10442;49.932;11.592;2022-07-29T01:11:22;22.10;46.40
20568;DHT22;10442;49.932;11.592;2022-07-29T01:13:50;22.10;46.80
20568;DHT22;10442;49.932;11.592;2022-07-29T01:16:29;22.10;46.50
20568;DHT22;10442;49.932;11.592;2022-07-29T01:19:13;22.00;46.30
20568;DHT22;10442;49.932;11.592;2022-07-29T01:21:53;22.00;46.30
20568;DHT22;10442;49.932;11.592;2022-07-29T01:27:07;22.10;46.20
20568;DHT22;10442;49.932;11.592;2022-07-29T01:29:45;22.00;46.20
20568;DHT22;10442;49.932;11.592;2022-07-29T01:32:18;22.00;46.30
20568;DHT22;10442;49.932;11.592;2022-07-29T01:38:01;22.00;46.20
20568;DHT22;10442;49.932;11.592;2022-07-29T01:43:14;22.00;46.20
20568;DHT22;10442;49.932;11.592;2022-07-29T01:45:46;22.10;46.20
20568;DHT22;10442;49.932;11.592;2022-07-29T01:51:25;22.00;46.30
20568;DHT22;10442;49.932;11.592;2022-07-29T01:54:50;22.00;46.20
20568;DHT22;10442;49.932;11.592;2022-07-29T01:57:14;22.00;46.00
20568;DHT22;10442;49.932;11.592;2022-07-29T01:59:45;22.00;46.00
20568;DHT22;10442;49.932;11.592;2022-07-29T02:02:15;22.00;46.30
20568;DHT22;10442;49.932;11.592;2022-07-29T02:04:44;22.00;46.10
20568;DHT22;10442;49.932;11.592;2022-07-29T02:07:19;22.00;45.80
20568;DHT22;10442;49.932;11.592;2022-07-29T02:09:48;22.00;45.70
20568;DHT22;10442;49.932;11.592;2022-07-29T02:12:18;22.00;45.50
20568;DHT22;10442;49.932;11.592;2022-07-29T02:14:49;22.00;45.60
20568;DHT22;10442;49.932;11.592;2022-07-29T02:17:51;22.00;45.60
20568;DHT22;10442;49.932;11.592;2022-07-29T02:20:17;22.00;45.40
20568;DHT22;10442;49.932;11.592;2022-07-29T02:22:46;21.90;45.40
20568;DHT22;10442;49.932;11.592;2022-07-29T02:25:15;21.90;45.50
20568;DHT22;10442;49.932;11.592;2022-07-29T02:27:44;21.90;45.70
20568;DHT22;10442;49.932;11.592;2022-07-29T02:30:12;21.90;45.80
20568;DHT22;10442;49.932;11.592;2022-07-29T02:32:41;21.90;45.80
20568;DHT22;10442;49.932;11.592;2022-07-29T02:35:09;21.80;45.90
20568;DHT22;10442;49.932;11.592;2022-07-29T02:37:37;21.80;46.00
20568;DHT22;10442;49.932;11.592;2022-07-29T02:40:11;21.80;46.20
20568;DHT22;10442;49.932;11.592;2022-07-29T02:42:42;21.70;46.40
20568;DHT22;10442;49.932;11.592;2022-07-29T02:45:11;21.70;46.50
20568;DHT22;10442;49.932;11.592;2022-07-29T02:47:47;21.70;46.80
20568;DHT22;10442;49.932;11.592;2022-07-29T02:50:38;21.70;47.90
20568;DHT22;10442;49.932;11.592;2022-07-29T02:53:23;21.60;48.00
20568;DHT22;10442;49.932;11.592;2022-07-29T02:55:57;21.60;48.00
20568;DHT22;10442;49.932;11.592;2022-07-29T02:58:28;21.60;48.20
20568;DHT22;10442;49.932;11.592;2022-07-29T03:01:02;21.60;48.20
20568;DHT22;10442;49.932;11.592;2022-07-29T03:03:36;21.60;48.20
20568;DHT22;10442;49.932;11.592;2022-07-29T03:06:05;21.60;48.20
20568;DHT22;10442;49.932;11.592;2022-07-29T03:08:34;21.60;48.60
20568;DHT22;10442;49.932;11.592;2022-07-29T03:11:02;21.60;49.20
20568;DHT22;10442;49.932;11.592;2022-07-29T03:13:30;21.60;49.10
20568;DHT22;10442;49.932;11.592;2022-07-29T03:15:59;21.60;48.70
20568;DHT22;10442;49.932;11.592;2022-07-29T03:18:27;21.60;47.80
20568;DHT22;10442;49.932;11.592;2022-07-29T03:20:54;21.60;47.60
20568;DHT22;10442;49.932;11.592;2022-07-29T03:23:23;21.60;47.50
20568;DHT22;10442;49.932;11.592;2022-07-29T03:25:51;21.60;47.50
20568;DHT22;10442;49.932;11.592;2022-07-29T03:28:19;21.60;47.40
20568;DHT22;10442;49.932;11.592;2022-07-29T03:30:49;21.60;47.50
20568;DHT22;10442;49.932;11.592;2022-07-29T03:33:17;21.60;47.50
20568;DHT22;10442;49.932;11.592;2022-07-29T03:35:45;21.70;47.60
20568;DHT22;10442;49.932;11.592;2022-07-29T03:38:12;21.70;47.50
20568;DHT22;10442;49.932;11.592;2022-07-29T03:40:48;21.70;47.40
20568;DHT22;10442;49.932;11.592;2022-07-29T03:43:17;21.70;47.50
20568;DHT22;10442;49.932;11.592;2022-07-29T03:45:48;21.70;47.40
20568;DHT22;10442;49.932;11.592;2022-07-29T03:48:20;21.80;47.50
20568;DHT22;10442;49.932;11.592;2022-07-29T03:50:49;21.80;47.40
20568;DHT22;10442;49.932;11.592;2022-07-29T03:53:18;21.80;47.40
20568;DHT22;10442;49.932;11.592;2022-07-29T03:55:50;21.80;47.30
20568;DHT22;10442;49.932;11.592;2022-07-29T03:58:19;21.80;47.30
20568;DHT22;10442;49.932;11.592;2022-07-29T04:00:47;21.80;47.30
20568;DHT22;10442;49.932;11.592;2022-07-29T04:03:15;21.80;47.40
20568;DHT22;10442;49.932;11.592;2022-07-29T04:05:43;21.80;47.50
20568;DHT22;10442;49.932;11.592;2022-07-29T04:08:10;21.80;47.50
20568;DHT22;10442;49.932;11.592;2022-07-29T04:10:39;21.80;47.40
20568;DHT22;10442;49.932;11.592;2022-07-29T04:13:07;21.80;47.60
20568;DHT22;10442;49.932;11.592;2022-07-29T04:15:34;21.80;47.60
20568;DHT22;10442;49.932;11.592;2022-07-29T04:18:02;21.90;47.80
20568;DHT22;10442;49.932;11.592;2022-07-29T04:20:30;21.90;47.70
20568;DHT22;10442;49.932;11.592;2022-07-29T04:22:57;21.90;47.80
20568;DHT22;10442;49.932;11.592;2022-07-29T04:25:25;21.80;47.80
20568;DHT22;10442;49.932;11.592;2022-07-29T04:27:52;21.90;48.10
20568;DHT22;10442;49.932;11.592;2022-07-29T04:30:30;21.90;48.10
20568;DHT22;10442;49.932;11.592;2022-07-29T04:32:58;21.90;48.40
20568;DHT22;10442;49.932;11.592;2022-07-29T04:35:33;21.90;48.40
20568;DHT22;10442;49.932;11.592;2022-07-29T04:38:05;21.90;48.40
20568;DHT22;10442;49.932;11.592;2022-07-29T04:40:42;21.90;48.90
20568;DHT22;10442;49.932;11.592;2022-07-29T04:43:10;21.90;48.90
20568;DHT22;10442;49.932;11.592;2022-07-29T04:45:40;21.90;48.90
20568;DHT22;10442;49.932;11.592;2022-07-29T04:48:08;21.90;48.70
20568;DHT22;10442;49.932;11.592;2022-07-29T04:50:38;21.90;48.70
20568;DHT22;10442;49.932;11.592;2022-07-29T04:53:06;22.00;49.60
20568;DHT22;10442;49.932;11.592;2022-07-29T04:55:35;22.00;49.10
20568;DHT22;10442;49.932;11.592;2022-07-29T04:58:06;22.00;49.40
20568;DHT22;10442;49.932;11.592;2022-07-29T05:00:34;22.00;49.50
20568;DHT22;10442;49.932;11.592;2022-07-29T05:03:02;22.00;49.50
20568;DHT22;10442;49.932;11.592;2022-07-29T05:05:30;22.00;49.50
20568;DHT22;10442;49.932;11.592;2022-07-29T05:07:58;22.10;49.10
20568;DHT22;10442;49.932;11.592;2022-07-29T05:10:26;22.10;49.20
20568;DHT22;10442;49.932;11.592;2022-07-29T05:12:53;22.20;49.00
20568;DHT22;10442;49.932;11.592;2022-07-29T05:15:21;22.20;49.20
20568;DHT22;10442;49.932;11.592;2022-07-29T05:17:48;22.30;49.00
20568;DHT22;10442;49.932;11.592;2022-07-29T05:20:16;22.30;49.00
20568;DHT22;10442;49.932;11.592;2022-07-29T05:22:45;22.30;48.70
20568;DHT22;10442;49.932;11.592;2022-07-29T05:25:13;22.40;48.60
20568;DHT22;10442;49.932;11.592;2022-07-29T05:27:40;22.50;48.50
20568;DHT22;10442;49.932;11.592;2022-07-29T05:30:09;22.50;48.60
20568;DHT22;10442;49.932;11.592;2022-07-29T05:32:37;22.50;48.50
20568;DHT22;10442;49.932;11.592;2022-07-29T05:35:05;22.60;48.20
20568;DHT22;10442;49.932;11.592;2022-07-29T05:37:33;22.70;48.30
20568;DHT22;10442;49.932;11.592;2022-07-29T05:40:03;22.80;48.40
20568;DHT22;10442;49.932;11.592;2022-07-29T05:42:31;22.80;48.80
20568;DHT22;10442;49.932;11.592;2022-07-29T05:44:58;22.80;48.60
20568;DHT22;10442;49.932;11.592;2022-07-29T05:47:26;22.80;48.70
20568;DHT22;10442;49.932;11.592;2022-07-29T05:49:54;22.80;48.60
20568;DHT22;10442;49.932;11.592;2022-07-29T05:52:21;22.80;48.60
20568;DHT22;10442;49.932;11.592;2022-07-29T05:54:49;22.90;48.80
20568;DHT22;10442;49.932;11.592;2022-07-29T05:57:21;22.90;49.10
20568;DHT22;10442;49.932;11.592;2022-07-29T05:59:50;22.90;49.30
20568;DHT22;10442;49.932;11.592;2022-07-29T06:02:18;22.90;49.20
20568;DHT22;10442;49.932;11.592;2022-07-29T06:04:46;23.00;49.40
20568;DHT22;10442;49.932;11.592;2022-07-29T06:07:14;23.10;49.00
20568;DHT22;10442;49.932;11.592;2022-07-29T06:09:42;23.30;48.60
20568;DHT22;10442;49.932;11.592;2022-07-29T06:12:09;23.60;48.10
20568;DHT22;10442;49.932;11.592;2022-07-29T06:14:38;24.00;47.50
20568;DHT22;10442;49.932;11.592;2022-07-29T06:17:05;24.50;46.60
20568;DHT22;10442;49.932;11.592;2022-07-29T06:19:36;25.10;45.60
20568;DHT22;10442;49.932;11.592;2022-07-29T06:22:04;25.50;44.10
20568;DHT22;10442;49.932;11.592;2022-07-29T06:24:31;25.90;43.60
20568;DHT22;10442;49.932;11.592;2022-07-29T06:26:59;26.10;43.00
20568;DHT22;10442;49.932;11.592;2022-07-29T06:29:27;26.30;43.20
20568;DHT22;10442;49.932;11.592;2022-07-29T06:31:54;26.30;42.00
20568;DHT22;10442;49.932;11.592;2022-07-29T06:34:22;26.40;41.50
20568;DHT22;10442;49.932;11.592;2022-07-29T06:36:50;26.50;41.50
20568;DHT22;10442;49.932;11.592;2022-07-29T06:39:21;26.80;41.60
20568;DHT22;10442;49.932;11.592;2022-07-29T06:41:49;27.30;41.40
20568;DHT22;10442;49.932;11.592;2022-07-29T06:44:17;28.00;40.60
20568;DHT22;10442;49.932;11.592;2022-07-29T06:46:45;28.70;39.30
20568;DHT22;10442;49.932;11.592;2022-07-29T06:49:16;29.50;38.20
20568;DHT22;10442;49.932;11.592;2022-07-29T06:51:44;30.30;37.30
20568;DHT22;10442;49.932;11.592;2022-07-29T06:54:11;31.00;36.40
20568;DHT22;10442;49.932;11.592;2022-07-29T06:56:39;31.50;35.10
20568;DHT22;10442;49.932;11.592;2022-07-29T06:59:11;31.90;34.60
20568;DHT22;10442;49.932;11.592;2022-07-29T07:01:41;32.20;33.70
20568;DHT22;10442;49.932;11.592;2022-07-29T07:04:09;32.30;32.90
20568;DHT22;10442;49.932;11.592;2022-07-29T07:06:37;32.20;32.70
20568;DHT22;10442;49.932;11.592;2022-07-29T07:09:05;32.10;32.50
20568;DHT22;10442;49.932;11.592;2022-07-29T07:11:33;31.90;32.60
20568;DHT22;10442;49.932;11.592;2022-07-29T07:14:00;31.70;32.60
20568;DHT22;10442;49.932;11.592;2022-07-29T07:16:31;31.50;32.90
20568;DHT22;10442;49.932;11.592;2022-07-29T07:18:59;31.30;32.90
20568;DHT22;10442;49.932;11.592;2022-07-29T07:21:27;31.10;33.20
20568;DHT22;10442;49.932;11.592;2022-07-29T07:23:57;31.00;33.30
20568;DHT22;10442;49.932;11.592;2022-07-29T07:26:25;30.80;33.50
20568;DHT22;10442;49.932;11.592;2022-07-29T07:28:54;30.60;33.60
20568;DHT22;10442;49.932;11.592;2022-07-29T07:31:22;30.50;33.70
20568;DHT22;10442;49.932;11.592;2022-07-29T07:33:50;30.40;34.10
20568;DHT22;10442;49.932;11.592;2022-07-29T07:36:19;30.50;34.40
20568;DHT22;10442;49.932;11.592;2022-07-29T07:38:46;30.60;34.50
20568;DHT22;10442;49.932;11.592;2022-07-29T07:41:14;30.90;34.70
20568;DHT22;10442;49.932;11.592;2022-07-29T07:43:41;31.40;34.40
20568;DHT22;10442;49.932;11.592;2022-07-29T07:46:09;32.00;33.80
20568;DHT22;10442;49.932;11.592;2022-07-29T07:48:37;32.50;32.80
20568;DHT22;10442;49.932;11.592;2022-07-29T07:51:04;33.10;32.30
20568;DHT22;10442;49.932;11.592;2022-07-29T07:53:32;33.70;31.40
20568;DHT22;10442;49.932;11.592;2022-07-29T07:56:00;34.10;30.70
20568;DHT22;10442;49.932;11.592;2022-07-29T07:58:43;34.40;30.00
20568;DHT22;10442;49.932;11.592;2022-07-29T08:01:10;34.40;29.50
20568;DHT22;10442;49.932;11.592;2022-07-29T08:03:38;34.30;29.20
20568;DHT22;10442;49.932;11.592;2022-07-29T08:06:06;34.10;29.50
20568;DHT22;10442;49.932;11.592;2022-07-29T08:08:34;34.00;29.80
20568;DHT22;10442;49.932;11.592;2022-07-29T08:11:02;34.10;29.90
20568;DHT22;10442;49.932;11.592;2022-07-29T08:13:37;34.30;29.90
20568;DHT22;10442;49.932;11.592;2022-07-29T08:16:05;34.50;29.40
20568;DHT22;10442;49.932;11.592;2022-07-29T08:18:40;34.70;29.50
20568;DHT22;10442;49.932;11.592;2022-07-29T08:21:08;34.90;29.00
20568;DHT22;10442;49.932;11.592;2022-07-29T08:23:36;35.20;28.70
20568;DHT22;10442;49.932;11.592;2022-07-29T08:26:15;35.50;28.80
20568;DHT22;10442;49.932;11.592;2022-07-29T08:28:43;35.90;28.70
20568;DHT22;10442;49.932;11.592;2022-07-29T08:31:17;36.10;28.10
20568;DHT22;10442;49.932;11.592;2022-07-29T08:33:45;36.40;28.10
20568;DHT22;10442;49.932;11.592;2022-07-29T08:36:13;36.50;28.00
20568;DHT22;10442;49.932;11.592;2022-07-29T08:38:40;36.70;27.60
20568;DHT22;10442;49.932;11.592;2022-07-29T08:41:08;36.60;27.30
20568;DHT22;10442;49.932;11.592;2022-07-29T08:43:36;36.70;27.40
20568;DHT22;10442;49.932;11.592;2022-07-29T08:46:04;36.70;27.30
20568;DHT22;10442;49.932;11.592;2022-07-29T08:48:32;36.50;27.20
20568;DHT22;10442;49.932;11.592;2022-07-29T08:51:01;36.50;27.60
20568;DHT22;10442;49.932;11.592;2022-07-29T08:53:31;36.50;27.50
20568;DHT22;10442;49.932;11.592;2022-07-29T08:55:59;36.50;27.70
20568;DHT22;10442;49.932;11.592;2022-07-29T08:58:27;36.70;27.90
20568;DHT22;10442;49.932;11.592;2022-07-29T09:01:01;36.90;27.70
20568;DHT22;10442;49.932;11.592;2022-07-29T09:03:31;37.20;27.60
20568;DHT22;10442;49.932;11.592;2022-07-29T09:05:59;37.50;26.90
20568;DHT22;10442;49.932;11.592;2022-07-29T09:08:27;37.60;26.80
20568;DHT22;10442;49.932;11.592;2022-07-29T09:10:55;37.70;27.20
20568;DHT22;10442;49.932;11.592;2022-07-29T09:13:30;37.50;26.50
20568;DHT22;10442;49.932;11.592;2022-07-29T09:15:57;37.30;26.60
20568;DHT22;10442;49.932;11.592;2022-07-29T09:18:39;37.10;26.90
20568;DHT22;10442;49.932;11.592;2022-07-29T09:21:10;36.80;27.20
20568;DHT22;10442;49.932;11.592;2022-07-29T09:24:04;36.70;27.20
20568;DHT22;10442;49.932;11.592;2022-07-29T09:26:36;36.60;27.40
20568;DHT22;10442;49.932;11.592;2022-07-29T09:29:12;36.50;27.20
20568;DHT22;10442;49.932;11.592;2022-07-29T09:31:43;36.40;27.30
20568;DHT22;10442;49.932;11.592;2022-07-29T09:34:12;36.20;27.60
20568;DHT22;10442;49.932;11.592;2022-07-29T09:36:49;36.00;27.80
20568;DHT22;10442;49.932;11.592;2022-07-29T09:39:35;35.90;28.10
20568;DHT22;10442;49.932;11.592;2022-07-29T09:42:05;35.80;28.10
20568;DHT22;10442;49.932;11.592;2022-07-29T09:44:47;35.50;28.70
20568;DHT22;10442;49.932;11.592;2022-07-29T09:47:17;35.30;28.40
20568;DHT22;10442;49.932;11.592;2022-07-29T09:49:57;35.10;28.60
20568;DHT22;10442;49.932;11.592;2022-07-29T09:52:28;34.90;28.90
20568;DHT22;10442;49.932;11.592;2022-07-29T09:55:06;34.80;29.20
20568;DHT22;10442;49.932;11.592;2022-07-29T09:57:34;34.60;29.30
20568;DHT22;10442;49.932;11.592;2022-07-29T10:02:40;34.20;29.90
20568;DHT22;10442;49.932;11.592;2022-07-29T10:05:24;34.10;30.00
20568;DHT22;10442;49.932;11.592;2022-07-29T10:07:55;34.10;30.10
20568;DHT22;10442;49.932;11.592;2022-07-29T10:10:26;34.10;30.10
20568;DHT22;10442;49.932;11.592;2022-07-29T10:12:59;34.00;30.00
20568;DHT22;10442;49.932;11.592;2022-07-29T10:15:37;33.90;30.30
20568;DHT22;10442;49.932;11.592;2022-07-29T10:18:11;33.70;30.70
20568;DHT22;10442;49.932;11.592;2022-07-29T10:20:39;33.50;30.90
20568;DHT22;10442;49.932;11.592;2022-07-29T10:23:08;33.40;31.40
20568;DHT22;10442;49.932;11.592;2022-07-29T10:25:36;33.30;31.40
20568;DHT22;10442;49.932;11.592;2022-07-29T10:28:05;33.20;31.70
20568;DHT22;10442;49.932;11.592;2022-07-29T10:30:33;33.10;31.90
20568;DHT22;10442;49.932;11.592;2022-07-29T10:36:07;33.20;31.80
20568;DHT22;10442;49.932;11.592;2022-07-29T10:38:54;33.20;31.50
20568;DHT22;10442;49.932;11.592;2022-07-29T10:41:43;33.00;31.60
20568;DHT22;10442;49.932;11.592;2022-07-29T10:44:21;32.90;31.80
20568;DHT22;10442;49.932;11.592;2022-07-29T10:47:22;32.70;32.00
20568;DHT22;10442;49.932;11.592;2022-07-29T10:50:01;32.70;32.20
20568;DHT22;10442;49.932;11.592;2022-07-29T10:55:37;32.50;32.50
20568;DHT22;10442;49.932;11.592;2022-07-29T10:58:22;32.50;32.60
20568;DHT22;10442;49.932;11.592;2022-07-29T11:00:54;32.40;32.70
20568;DHT22;10442;49.932;11.592;2022-07-29T11:03:43;32.40;32.70
20568;DHT22;10442;49.932;11.592;2022-07-29T11:06:18;32.50;33.40
20568;DHT22;10442;49.932;11.592;2022-07-29T11:09:19;32.40;32.80
20568;DHT22;10442;49.932;11.592;2022-07-29T11:15:12;32.40;32.90
20568;DHT22;10442;49.932;11.592;2022-07-29T11:23:34;32.60;33.20
20568;DHT22;10442;49.932;11.592;2022-07-29T11:29:01;32.90;32.70
20568;DHT22;10442;49.932;11.592;2022-07-29T11:31:39;33.00;32.40
20568;DHT22;10442;49.932;11.592;2022-07-29T11:34:25;33.10;32.50
20568;DHT22;10442;49.932;11.592;2022-07-29T11:37:13;33.10;32.30
20568;DHT22;10442;49.932;11.592;2022-07-29T11:45:05;33.50;31.80
20568;DHT22;10442;49.932;11.592;2022-07-29T11:47:56;33.60;31.90
20568;DHT22;10442;49.932;11.592;2022-07-29T11:50:45;33.70;31.70
20568;DHT22;10442;49.932;11.592;2022-07-29T11:53:15;33.70;31.70
20568;DHT22;10442;49.932;11.592;2022-07-29T11:55:43;33.80;31.70
20568;DHT22;10442;49.932;11.592;2022-07-29T11:58:24;33.90;31.60
20568;DHT22;10442;49.932;11.592;2022-07-29T12:00:53;34.10;31.40
20568;DHT22;10442;49.932;11.592;2022-07-29T12:03:25;34.20;31.00
20568;DHT22;10442;49.932;11.592;2022-07-29T12:06:22;34.20;30.60
20568;DHT22;10442;49.932;11.592;2022-07-29T12:08:50;34.20;31.00
20568;DHT22;10442;49.932;11.592;2022-07-29T12:11:19;34.30;30.90
20568;DHT22;10442;49.932;11.592;2022-07-29T12:13:50;34.30;30.90
20568;DHT22;10442;49.932;11.592;2022-07-29T12:16:20;34.40;30.60
20568;DHT22;10442;49.932;11.592;2022-07-29T12:18:59;34.40;31.30
20568;DHT22;10442;49.932;11.592;2022-07-29T12:21:49;34.50;30.60
20568;DHT22;10442;49.932;11.592;2022-07-29T12:24:23;34.40;30.20
20568;DHT22;10442;49.932;11.592;2022-07-29T12:26:59;34.40;30.20
20568;DHT22;10442;49.932;11.592;2022-07-29T12:29:28;34.40;30.20
20568;DHT22;10442;49.932;11.592;2022-07-29T12:32:02;34.20;30.20
20568;DHT22;10442;49.932;11.592;2022-07-29T12:34:32;34.20;30.20
20568;DHT22;10442;49.932;11.592;2022-07-29T12:37:00;34.10;30.40
20568;DHT22;10442;49.932;11.592;2022-07-29T12:39:29;34.00;31.10
20568;DHT22;10442;49.932;11.592;2022-07-29T12:41:57;34.00;32.20
20568;DHT22;10442;49.932;11.592;2022-07-29T12:44:44;33.90;33.00
20568;DHT22;10442;49.932;11.592;2022-07-29T12:47:13;33.60;33.40
20568;DHT22;10442;49.932;11.592;2022-07-29T12:49:41;33.30;34.30
20568;DHT22;10442;49.932;11.592;2022-07-29T12:54:55;32.50;37.30
20568;DHT22;10442;49.932;11.592;2022-07-29T12:57:23;32.20;42.00
20568;DHT22;10442;49.932;11.592;2022-07-29T13:00:04;31.80;44.10
20568;DHT22;10442;49.932;11.592;2022-07-29T13:02:36;31.30;45.10
20568;DHT22;10442;49.932;11.592;2022-07-29T13:05:06;30.90;46.00
20568;DHT22;10442;49.932;11.592;2022-07-29T13:07:35;30.40;47.40
20568;DHT22;10442;49.932;11.592;2022-07-29T13:10:21;29.80;48.10
20568;DHT22;10442;49.932;11.592;2022-07-29T13:13:10;29.20;49.10
20568;DHT22;10442;49.932;11.592;2022-07-29T13:15:44;28.60;51.40
20568;DHT22;10442;49.932;11.592;2022-07-29T13:18:46;27.90;52.00
20568;DHT22;10442;49.932;11.592;2022-07-29T13:21:15;27.00;53.80
20568;DHT22;10442;49.932;11.592;2022-07-29T13:23:45;26.20;55.70
20568;DHT22;10442;49.932;11.592;2022-07-29T13:26:12;25.50;57.40
20568;DHT22;10442;49.932;11.592;2022-07-29T13:28:40;24.90;58.80
20568;DHT22;10442;49.932;11.592;2022-07-29T13:31:10;24.40;59.20
20568;DHT22;10442;49.932;11.592;2022-07-29T13:33:38;24.00;59.90
20568;DHT22;10442;49.932;11.592;2022-07-29T13:36:06;23.70;61.60
20568;DHT22;10442;49.932;11.592;2022-07-29T13:38:34;23.40;61.60
20568;DHT22;10442;49.932;11.592;2022-07-29T13:41:02;23.20;62.30
20568;DHT22;10442;49.932;11.592;2022-07-29T13:43:29;23.10;63.30
20568;DHT22;10442;49.932;11.592;2022-07-29T13:45:57;23.10;65.10
20568;DHT22;10442;49.932;11.592;2022-07-29T13:48:25;23.10;66.30
20568;DHT22;10442;49.932;11.592;2022-07-29T13:50:52;23.20;65.80
20568;DHT22;10442;49.932;11.592;2022-07-29T13:53:20;23.30;65.60
20568;DHT22;10442;49.932;11.592;2022-07-29T13:55:53;23.30;65.90
20568;DHT22;10442;49.932;11.592;2022-07-29T13:58:21;23.40;66.00
20568;DHT22;10442;49.932;11.592;2022-07-29T14:00:49;23.50;64.40
20568;DHT22;10442;49.932;11.592;2022-07-29T14:03:17;23.60;65.50
20568;DHT22;10442;49.932;11.592;2022-07-29T14:05:45;23.80;65.50
20568;DHT22;10442;49.932;11.592;2022-07-29T14:08:13;23.90;66.90
20568;DHT22;10442;49.932;11.592;2022-07-29T14:10:40;24.00;66.40
20568;DHT22;10442;49.932;11.592;2022-07-29T14:13:08;24.10;64.40
20568;DHT22;10442;49.932;11.592;2022-07-29T14:15:52;24.40;64.70
20568;DHT22;10442;49.932;11.592;2022-07-29T14:18:20;24.60;62.70
20568;DHT22;10442;49.932;11.592;2022-07-29T14:20:48;24.90;63.70
20568;DHT22;10442;49.932;11.592;2022-07-29T14:23:16;25.00;63.00
20568;DHT22;10442;49.932;11.592;2022-07-29T14:25:46;25.20;62.80
20568;DHT22;10442;49.932;11.592;2022-07-29T14:28:15;25.30;60.70
20568;DHT22;10442;49.932;11.592;2022-07-29T14:30:43;25.40;60.90
20568;DHT22;10442;49.932;11.592;2022-07-29T14:33:11;25.50;59.70
20568;DHT22;10442;49.932;11.592;2022-07-29T14:35:39;25.60;60.50
20568;DHT22;10442;49.932;11.592;2022-07-29T14:38:06;25.50;60.70
20568;DHT22;10442;49.932;11.592;2022-07-29T14:40:34;25.50;59.80
20568;DHT22;10442;49.932;11.592;2022-07-29T14:43:01;25.50;59.50
20568;DHT22;10442;49.932;11.592;2022-07-29T14:45:28;25.50;59.30
20568;DHT22;10442;49.932;11.592;2022-07-29T14:47:56;25.50;59.20
20568;DHT22;10442;49.932;11.592;2022-07-29T14:50:24;25.50;59.30
20568;DHT22;10442;49.932;11.592;2022-07-29T14:52:59;25.50;59.40
20568;DHT22;10442;49.932;11.592;2022-07-29T14:55:26;25.40;58.70
20568;DHT22;10442;49.932;11.592;2022-07-29T14:57:54;25.50;59.80
20568;DHT22;10442;49.932;11.592;2022-07-29T15:00:35;25.50;60.10
20568;DHT22;10442;49.932;11.592;2022-07-29T15:03:04;25.50;60.60
20568;DHT22;10442;49.932;11.592;2022-07-29T15:05:32;25.60;60.20
20568;DHT22;10442;49.932;11.592;2022-07-29T15:08:00;25.60;60.60
20568;DHT22;10442;49.932;11.592;2022-07-29T15:10:28;25.60;60.80
20568;DHT22;10442;49.932;11.592;2022-07-29T15:12:56;25.70;61.50
20568;DHT22;10442;49.932;11.592;2022-07-29T15:15:24;25.70;61.60
20568;DHT22;10442;49.932;11.592;2022-07-29T15:17:52;25.70;61.80
20568;DHT22;10442;49.932;11.592;2022-07-29T15:20:20;25.70;61.70
20568;DHT22;10442;49.932;11.592;2022-07-29T15:22:48;25.70;61.80
20568;DHT22;10442;49.932;11.592;2022-07-29T15:25:16;25.70;60.20
20568;DHT22;10442;49.932;11.592;2022-07-29T15:27:43;25.70;60.30
20568;DHT22;10442;49.932;11.592;2022-07-29T15:30:19;25.60;60.50
20568;DHT22;10442;49.932;11.592;2022-07-29T15:33:00;25.60;61.00
20568;DHT22;10442;49.932;11.592;2022-07-29T15:35:28;25.50;61.50
20568;DHT22;10442;49.932;11.592;2022-07-29T15:37:55;25.40;61.70
20568;DHT22;10442;49.932;11.592;2022-07-29T15:40:23;25.30;61.80
20568;DHT22;10442;49.932;11.592;2022-07-29T15:42:50;25.20;62.50
20568;DHT22;10442;49.932;11.592;2022-07-29T15:45:18;25.20;62.50
20568;DHT22;10442;49.932;11.592;2022-07-29T15:47:45;25.10;61.90
20568;DHT22;10442;49.932;11.592;2022-07-29T15:50:13;25.10;61.60
20568;DHT22;10442;49.932;11.592;2022-07-29T15:52:43;25.00;61.70
20568;DHT22;10442;49.932;11.592;2022-07-29T15:55:10;25.00;60.60
20568;DHT22;10442;49.932;11.592;2022-07-29T15:57:38;24.90;61.10
20568;DHT22;10442;49.932;11.592;2022-07-29T16:00:08;24.90;61.10
20568;DHT22;10442;49.932;11.592;2022-07-29T16:02:36;24.80;61.70
20568;DHT22;10442;49.932;11.592;2022-07-29T16:05:04;24.80;62.70
20568;DHT22;10442;49.932;11.592;2022-07-29T16:07:37;24.80;63.20
20568;DHT22;10442;49.932;11.592;2022-07-29T16:10:04;24.70;63.80
20568;DHT22;10442;49.932;11.592;2022-07-29T16:12:34;24.60;63.40
20568;DHT22;10442;49.932;11.592;2022-07-29T16:15:02;24.50;64.00
20568;DHT22;10442;49.932;11.592;2022-07-29T16:17:37;24.40;64.60
20568;DHT22;10442;49.932;11.592;2022-07-29T16:20:06;24.30;65.00